Hyvinkään lentokentän sää

Sää nyt

Mitattu 4.3. 04:55
-2.0°, kosteus 99% (-2°)
Aurinko: 07:10 - 17:56



Lähialueen METARit

METAR EFHK 040220Z 02004KT 340V060 0400 R04L/1000D R15/0900U R22L/0900U R22R/0800U FZFG VV002 M02/M02 Q1024 NOSIG=

METAR EFTU 040150Z AUTO 09008KT 0700 R08/0900D FZFG VV001 M01/M02 Q1024=

METAR EFTP 040220Z AUTO 07005KT 1100 R06/1300D BCFG VV002 M01/M01 Q1024=

Sää lentopaikoilla (fmi)

Tunnin tuulihistoria

Sääennuste

KelloTHum, DpTuuli (kt)Pilvet
04.03.
05:00-2°99%, -2°40° 5(9)8/8
07:00-2°99%, -2°50° 5(10)8/8
09:00-1°98%, -2°70° 5(10)8/8
11:0094%, -2°60° 5(10)8/8
13:0085%, -2°65° 6(11)1/8
15:0074%, -3°75° 5(11)0/8
17:0080%, -2°60° 5(10)0/8
19:00-1°89%, -3°50° 6(11)0/8
21:00-1°94%, -2°60° 6(12)1/8
23:00-2°95%, -3°65° 6(12)3/8
05.03.
02:00-1°96%, -1°65° 6(11)8/8
05:00-1°86%, -4°60° 7(14)7/8
08:00-2°92%, -4°55° 6(10)1/8
11:0080%, -4°70° 6(12)0/8
14:0059%, -8°70° 7(14)0/8
17:0063%, -8°65° 6(12)0/8
20:00-3°75%, -9°55° 5(8)0/8
23:00-5°81%, -9°60° 4(7)0/8
06.03.
03:00-7°89%, -9°25° 2(4)0/8

Tietoja kentästä